Flight Track Log - Related Links

Times and Time Zones

All times are in EDT time to prevent confusion due to time zone crossing. See the UAL33 flight status page for this flight to view local times or setup timezone preferences in your user account.

Time Position Orientation Groundspeed Altitude Reporting Facility
EDT Latitude Longitude Course Direction KTS MPH feet Rate Location/Type
Sun 09:50:52 PM 41.9790 -87.9210 320° Northwest 144 166 600  Level FlightAware ADS-B
Sun 09:51:24 PM 41.9990 -87.9430 321° Northwest 175 201 2,500 3,545 Climbing FlightAware ADS-B
Sun 09:51:36 PM 42.0030 -87.9550 294° West 185 213 3,200 3,231 Climbing FlightAware ADS-B
Sun 09:51:50 PM 42.0000 -87.9730 257° West 210 242 3,900 2,600 Climbing FlightAware ADS-B
Sun 09:52:06 PM 41.9890 -87.9900 229° Southwest 250 288 4,500 1,317 Climbing FlightAware ADS-B
Sun 09:52:31 PM 41.9650 -88.0150 218° Southwest 281 323 4,800 600 Climbing FlightAware ADS-B
Sun 09:52:46 PM 41.9490 -88.0320 218° Southwest 281 323 4,900 1,111 Climbing FlightAware ADS-B
Sun 09:52:58 PM 41.9350 -88.0410 206° Southwest 282 325 5,300 1,714 Climbing FlightAware ADS-B
Sun 09:53:14 PM 41.9150 -88.0450 188° South 280 322 5,700 933 Climbing FlightAware ADS-B
Sun 09:53:43 PM 41.8780 -88.0390 173° South 289 333 6,000 1,350 Climbing FlightAware ADS-B
Sun 09:53:54 PM 41.8640 -88.0270 147° Southeast 287 330 6,600 3,951 Climbing FlightAware ADS-B
Sun 09:54:24 PM 41.8350 -87.9920 138° Southeast 295 339 8,700 4,000 Climbing FlightAware ADS-B
Sun 09:55:03 PM 41.7890 -87.9560 150° Southeast 304 350 11,200 4,000 Climbing FlightAware ADS-B
Sun 09:55:48 PM 41.7250 -87.9660 187° South 308 354 14,300 3,741 Climbing FlightAware ADS-B
Sun 09:56:28 PM 41.6670 -87.9780 189° South 326 375 16,500 3,357 Climbing FlightAware ADS-B
Sun 09:57:12 PM 41.6000 -87.9910 188° South 337 388 19,000 2,860 Climbing FlightAware ADS-B
Sun 09:57:54 PM 41.5320 -88.0050 189° South 370 426 20,600 2,488 Climbing FlightAware ADS-B
Sun 09:58:34 PM 41.4630 -88.0190 189° South 385 443 22,400 2,786 Climbing FlightAware ADS-B
Sun 09:59:18 PM 41.3840 -88.0380 190° South 395 455 24,500 2,714 Climbing FlightAware ADS-B
Sun 09:59:58 PM 41.3110 -88.0620 194° South 407 468 26,200 2,500 Climbing FlightAware ADS-B
Sun 10:00:42 PM 41.2340 -88.1030 202° Southwest 406 467 28,000 2,357 Climbing FlightAware ADS-B
Sun 10:01:22 PM 41.1680 -88.1490 208° Southwest 416 479 29,500 2,143 Climbing FlightAware ADS-B
Sun 10:02:06 PM 41.0920 -88.2010 207° Southwest 425 489 31,000 1,929 Climbing FlightAware ADS-B
Sun 10:02:46 PM 41.0230 -88.2480 207° Southwest 434 499 32,200 1,786 Climbing FlightAware ADS-B
Sun 10:03:30 PM 40.9420 -88.3040 208° Southwest 444 511 33,500 1,714 Climbing FlightAware ADS-B
Sun 10:04:10 PM 40.8670 -88.3540 207° Southwest 450 518 34,600 1,714 Climbing FlightAware ADS-B
Sun 10:04:54 PM 40.7860 -88.4100 208° Southwest 452 520 35,900 1,953 Climbing FlightAware ADS-B
Sun 10:05:36 PM 40.7090 -88.4620 207° Southwest 445 512 37,400 1,571 Climbing FlightAware ADS-B
Sun 10:06:18 PM 40.6310 -88.5150 207° Southwest 453 521 38,100 1,171 Climbing FlightAware ADS-B
Sun 10:06:58 PM 40.5580 -88.5640 207° Southwest 452 520 39,000 1,390 Climbing FlightAware ADS-B
Sun 10:07:40 PM 40.4800 -88.6160 207° Southwest 445 512 40,000 698 Climbing FlightAware ADS-B
Sun 10:08:24 PM 40.4020 -88.6690 207° Southwest 445 512 40,000  Level FlightAware ADS-B
Sun 10:09:01 PM 40.3350 -88.7140 207° Southwest 445 512 40,000  Level FlightAware ADS-B
Sun 10:09:47 PM 40.2460 -88.7730 207° Southwest 445 512 40,000  Level FlightAware ADS-B
Sun 10:10:31 PM 40.1920 -88.8090 207° Southwest 445 512 40,000  Level FlightAware ADS-B
Sun 10:11:41 PM 40.0390 -88.9100 207° Southwest 445 512 40,000  Level FlightAware ADS-B
Sun 10:12:21 PM 39.9660 -88.9590 207° Southwest 446 513 40,000  Level FlightAware ADS-B
Sun 10:13:06 PM 39.8830 -89.0130 207° Southwest 447 514 40,000  Level FlightAware ADS-B
Sun 10:13:46 PM 39.8090 -89.0620 207° Southwest 448 516 40,000  Level FlightAware ADS-B
Sun 10:14:22 PM 39.7440 -89.1050 207° Southwest 447 514 40,000  Level FlightAware ADS-B
Sun 10:15:11 PM 39.6500 -89.1660 207° Southwest 449 517 40,000  Level FlightAware ADS-B
Sun 10:15:52 PM 39.5750 -89.2150 207° Southwest 450 518 40,000  Level FlightAware ADS-B
Sun 10:16:36 PM 39.4910 -89.2700 207° Southwest 450 518 40,000  Level FlightAware ADS-B
Sun 10:17:12 PM 39.4260 -89.3120 207° Southwest 449 517 40,000  Level FlightAware ADS-B
Sun 10:17:59 PM 39.3380 -89.3690 207° Southwest 449 517 40,000  Level FlightAware ADS-B
Sun 10:18:40 PM 39.2640 -89.4170 207° Southwest 449 517 40,000  Level FlightAware ADS-B
Sun 10:19:23 PM 39.1820 -89.4700 207° Southwest 447 514 40,000  Level FlightAware ADS-B
Sun 10:20:03 PM 39.1090 -89.5170 207° Southwest 446 513 40,000  Level FlightAware ADS-B
Sun 10:20:40 PM 39.0410 -89.5610 207° Southwest 444 511 40,000  Level FlightAware ADS-B
Sun 10:21:27 PM 38.9530 -89.6170 206° Southwest 445 512 40,000  Level FlightAware ADS-B
Sun 10:22:10 PM 38.8730 -89.6680 206° Southwest 448 516 40,000  Level FlightAware ADS-B
Sun 10:22:52 PM 38.7960 -89.7170 206° Southwest 449 517 40,000  Level FlightAware ADS-B
Sun 10:23:49 PM 38.6900 -89.7840 206° Southwest 450 518 40,000  Level FlightAware ADS-B
Sun 10:24:28 PM 38.6170 -89.8310 207° Southwest 450 518 40,000  Level FlightAware ADS-B
Sun 10:25:21 PM 38.5340 -89.8830 206° Southwest 449 517 40,000  Level FlightAware ADS-B
Sun 10:26:07 PM 38.4330 -89.9460 206° Southwest 450 518 40,000  Level FlightAware ADS-B
Sun 10:26:45 PM 38.3730 -89.9840 206° Southwest 450 518 40,000  Level FlightAware ADS-B
Sun 10:27:33 PM 38.2960 -90.0310 206° Southwest 450 518 40,000  Level FlightAware ADS-B
Sun 10:28:16 PM 38.1900 -90.0990 207° Southwest 451 519 40,000  Level FlightAware ADS-B
Sun 10:28:49 PM 38.1350 -90.1330 206° Southwest 451 519 40,000  Level FlightAware ADS-B
Sun 10:29:33 PM 38.0480 -90.1870 206° Southwest 451 519 40,000  Level FlightAware ADS-B
Sun 10:30:45 PM 37.9230 -90.2640 206° Southwest 451 519 40,000  Level FlightAware ADS-B
Sun 10:31:25 PM 37.8450 -90.3120 206° Southwest 449 517 40,000  Level FlightAware ADS-B
Sun 10:32:03 PM 37.7670 -90.3610 206° Southwest 451 519 40,000  Level FlightAware ADS-B
Sun 10:32:59 PM 37.6680 -90.4220 206° Southwest 451 519 40,000  Level FlightAware ADS-B
Sun 10:33:47 PM 37.5920 -90.4690 206° Southwest 451 519 40,000  Level FlightAware ADS-B
Sun 10:34:23 PM 37.5340 -90.5040 206° Southwest 451 519 40,000  Level FlightAware ADS-B
Sun 10:35:24 PM 37.4370 -90.5640 206° Southwest 451 519 40,000  Level FlightAware ADS-B
Sun 10:35:51 PM 37.3380 -90.6230 205° Southwest 448 516 40,000  Level FlightAware ADS-B
Sun 10:36:31 PM 37.2620 -90.6700 206° Southwest 447 514 40,000  Level FlightAware ADS-B
Sun 10:37:13 PM 37.1850 -90.7160 205° Southwest 445 512 40,000  Level FlightAware ADS-B
Sun 10:37:57 PM 37.1030 -90.7660 206° Southwest 445 512 40,000  Level FlightAware ADS-B
Sun 10:38:37 PM 37.0300 -90.8100 206° Southwest 447 514 40,000  Level FlightAware ADS-B
Sun 10:39:19 PM 36.9500 -90.8580 206° Southwest 445 512 40,000  Level FlightAware ADS-B
Sun 10:40:03 PM 36.8690 -90.9070 206° Southwest 445 512 40,000  Level FlightAware ADS-B
Sun 10:40:41 PM 36.7990 -90.9490 206° Southwest 444 511 40,000  Level FlightAware ADS-B
Sun 10:41:21 PM 36.7240 -90.9930 205° Southwest 442 509 40,000  Level FlightAware ADS-B
Sun 10:42:05 PM 36.6430 -91.0420 206° Southwest 442 509 40,000  Level FlightAware ADS-B
Sun 10:42:47 PM 36.5660 -91.0870 205° Southwest 441 507 40,000  Level FlightAware ADS-B
Sun 10:43:27 PM 36.4910 -91.1320 206° Southwest 441 507 40,000  Level FlightAware ADS-B
Sun 10:44:11 PM 36.4110 -91.1790 205° Southwest 441 507 40,000  Level FlightAware ADS-B
Sun 10:44:49 PM 36.3420 -91.2200 206° Southwest 441 507 40,000  Level FlightAware ADS-B
Sun 10:45:31 PM 36.2650 -91.2660 206° Southwest 439 505 40,000  Level FlightAware ADS-B
Sun 10:46:28 PM 36.1690 -91.3220 205° Southwest 438 504 40,000  Level FlightAware ADS-B
Sun 10:47:11 PM 36.0810 -91.3740 206° Southwest 437 503 40,000  Level FlightAware ADS-B
Sun 10:47:55 PM 36.0000 -91.4210 205° Southwest 439 505 40,000  Level FlightAware ADS-B
Sun 10:48:35 PM 35.9280 -91.4630 205° Southwest 437 503 40,000  Level FlightAware ADS-B
Sun 10:49:19 PM 35.8460 -91.5110 205° Southwest 437 503 40,000  Level FlightAware ADS-B
Sun 10:49:59 PM 35.7730 -91.5530 205° Southwest 438 504 40,000  Level FlightAware ADS-B
Sun 10:50:39 PM 35.7020 -91.5950 206° Southwest 436 502 40,000  Level FlightAware ADS-B
Sun 10:51:26 PM 35.6230 -91.6400 205° Southwest 437 503 40,000  Level FlightAware ADS-B
Sun 10:52:05 PM 35.5450 -91.6860 206° Southwest 434 499 40,000  Level FlightAware ADS-B
Sun 10:53:02 PM 35.4500 -91.7400 205° Southwest 434 499 40,000  Level FlightAware ADS-B
Sun 10:53:44 PM 35.3750 -91.7840 206° Southwest 432 497 40,000  Level FlightAware ADS-B
Sun 10:54:20 PM 35.3190 -91.8150 204° Southwest 432 497 40,000  Level FlightAware ADS-B
Sun 10:55:09 PM 35.2440 -91.8580 205° Southwest 432 497 40,000  Level FlightAware ADS-B
Sun 10:55:47 PM 35.1440 -91.9160 205° Southwest 426 490 40,000  Level FlightAware ADS-B
Sun 10:56:32 PM 35.0740 -91.9560 205° Southwest 426 490 40,000  Level FlightAware ADS-B
Sun 10:57:08 PM 35.0190 -91.9870 205° Southwest 426 490 40,000  Level FlightAware ADS-B
Sun 10:57:56 PM 34.9460 -92.0290 205° Southwest 426 490 40,000  Level FlightAware ADS-B
Sun 10:58:32 PM 34.8910 -92.0600 205° Southwest 426 490 40,000  Level FlightAware ADS-B
Sun 10:59:20 PM 34.8190 -92.1010 205° Southwest 426 490 40,000  Level FlightAware ADS-B
Sun 10:59:56 PM 34.7640 -92.1320 205° Southwest 426 490 40,000  Level FlightAware ADS-B
Sun 11:00:44 PM 34.6910 -92.1730 205° Southwest 426 490 40,000  Level FlightAware ADS-B
Sun 11:01:20 PM 34.6360 -92.2040 205° Southwest 426 490 40,000  Level FlightAware ADS-B
Sun 11:02:08 PM 34.5630 -92.2460 205° Southwest 426 490 40,000  Level FlightAware ADS-B
Sun 11:02:47 PM 34.5040 -92.2790 205° Southwest 426 490 40,000  Level FlightAware ADS-B
Sun 11:03:33 PM 34.4340 -92.3190 205° Southwest 426 490 40,000  Level FlightAware ADS-B
Sun 11:04:09 PM 34.3800 -92.3500 205° Southwest 426 490 40,000  Level FlightAware ADS-B
Sun 11:04:55 PM 34.3100 -92.3890 205° Southwest 426 490 40,000  Level FlightAware ADS-B
Sun 11:05:35 PM 34.2490 -92.4230 205° Southwest 426 490 40,000  Level FlightAware ADS-B
Sun 11:06:04 PM 33.9739 -92.3169 205° Southwest 432 497 40,000  Level Fort Worth Center
Sun 11:07:05 PM 33.8514 -92.3342 187° South 437 503 40,000  Level Fort Worth Center
Sun 11:08:04 PM 33.7294 -92.3586 189° South 443 510 40,000  Level Fort Worth Center
Sun 11:09:05 PM 33.6072 -92.3808 189° South 443 510 40,000  Level Fort Worth Center
Sun 11:10:04 PM 33.5017 -92.4017 189° South 443 510 40,000  Level Fort Worth Center
Sun 11:11:04 PM 33.3792 -92.4211 188° South 443 510 40,000  Level Fort Worth Center
Sun 11:12:04 PM 33.2547 -92.4431 188° South 449 517 40,000  Level Fort Worth Center
Sun 11:13:04 PM 33.1347 -92.4672 190° South 449 517 40,000  Level Fort Worth Center
Sun 11:14:04 PM 33.0144 -92.4886 188° South 449 517 40,000  Level Fort Worth Center
Sun 11:15:04 PM 32.8881 -92.5106 188° South 444 511 40,000  Level Fort Worth Center
Sun 11:17:09 PM 32.6333 -92.5592 189° South 446 513 40,000 -32 Level Houston Center
Sun 11:18:09 PM 32.4953 -92.5836 188° South 446 513 39,900 -50 Descending Houston Center
Sun 11:19:10 PM 32.3728 -92.6044 188° South 445 512 39,900 49 Level Houston Center
Sun 11:20:11 PM 32.2517 -92.6261 189° South 443 510 40,000 -14 Climbing Houston Center
Sun 11:26:11 PM 31.6267 -93.0127 189° South 416 479 39,800 -121 Descending FlightAware ADS-B
Sun 11:26:47 PM 31.5738 -93.0635 219° Southwest 404 465 39,200 -1,500 Descending FlightAware ADS-B
Sun 11:27:19 PM 31.5286 -93.1069 219° Southwest 401 461 38,100 -2,032 Descending FlightAware ADS-B
Sun 11:27:49 PM 31.4851 -93.1489 219° Southwest 401 461 37,100 -1,688 Descending FlightAware ADS-B
Sun 11:28:23 PM 31.4364 -93.1953 219° Southwest 393 452 36,300 -1,569 Descending FlightAware ADS-B
Sun 11:28:54 PM 31.3937 -93.2364 219° Southwest 391 450 35,400 -1,672 Descending FlightAware ADS-B
Sun 11:29:24 PM 31.3517 -93.2766 219° Southwest 389 448 34,600 -1,400 Descending FlightAware ADS-B
Sun 11:29:54 PM 31.3094 -93.3170 219° Southwest 389 448 34,000 -563 Descending FlightAware ADS-B
Sun 11:30:28 PM 31.2623 -93.3620 219° Southwest 389 448 34,000 -375 Level FlightAware ADS-B
Sun 11:30:58 PM 31.2202 -93.4021 219° Southwest 392 451 33,600 -1,377 Descending FlightAware ADS-B
Sun 11:31:29 PM 31.1770 -93.4431 219° Southwest 403 464 32,600 -2,459 Descending FlightAware ADS-B
Sun 11:31:59 PM 31.1323 -93.4857 219° Southwest 423 487 31,100 -2,300 Descending FlightAware ADS-B
Sun 11:32:29 PM 31.0853 -93.5303 219° Southwest 430 495 30,300 -1,400 Descending FlightAware ADS-B
Sun 11:32:59 PM 31.0383 -93.5747 219° Southwest 430 495 29,700 -1,100 Descending FlightAware ADS-B
Sun 11:33:29 PM 30.9922 -93.6184 219° Southwest 426 490 29,200 -1,377 Descending FlightAware ADS-B
Sun 11:34:00 PM 30.9465 -93.6618 219° Southwest 424 488 28,300 -1,770 Descending FlightAware ADS-B
Sun 11:34:30 PM 30.9007 -93.7050 219° Southwest 420 483 27,400 -1,800 Descending FlightAware ADS-B
Sun 11:35:00 PM 30.8551 -93.7480 219° Southwest 420 483 26,500 -1,900 Descending FlightAware ADS-B
Sun 11:35:30 PM 30.8098 -93.7906 219° Southwest 419 482 25,500 -1,900 Descending FlightAware ADS-B
Sun 11:36:00 PM 30.7649 -93.8329 219° Southwest 414 476 24,600 -1,800 Descending FlightAware ADS-B
Sun 11:36:30 PM 30.7196 -93.8756 219° Southwest 410 472 23,700 -1,839 Descending FlightAware ADS-B
Sun 11:37:02 PM 30.6735 -93.9188 219° Southwest 407 468 22,700 -1,935 Descending FlightAware ADS-B
Sun 11:37:32 PM 30.6295 -93.9600 219° Southwest 401 461 21,700 -1,868 Descending FlightAware ADS-B
Sun 11:39:33 PM 30.4595 -94.1190 219° Southwest 380 437 18,000 -1,856 Descending FlightAware ADS-B
Sun 11:40:33 PM 30.3770 -94.1959 219° Southwest 377 434 16,100 -1,862 Descending FlightAware ADS-B
Sun 11:41:58 PM 30.2623 -94.3024 219° Southwest 371 427 13,500 -1,850 Descending FlightAware ADS-B
Sun 11:42:20 PM 30.2373 -94.3336 229° Southwest 366 421 12,800 -1,571 Descending FlightAware ADS-B
Sun 11:42:40 PM 30.2187 -94.3660 239° Southwest 356 410 12,400 -750 Descending FlightAware ADS-B
Sun 11:43:40 PM 30.1784 -94.4685 246° West 339 390 11,800 -718 Descending FlightAware ADS-B
Sun 11:44:37 PM 30.1453 -94.5564 247° West 300 345 11,000 -1,385 Descending FlightAware ADS-B
Sun 11:45:37 PM 30.1124 -94.6440 247° West 294 338 9,100 -1,820 Descending FlightAware ADS-B
Sun 11:46:06 PM 30.0971 -94.6850 246° West 285 328 8,300 -1,546 Descending FlightAware ADS-B
Sun 11:47:14 PM 30.0638 -94.7714 246° West 255 293 6,600 -1,241 Descending FlightAware ADS-B
Sun 11:48:31 PM 30.0273 -94.8667 246° West 246 283 5,300 -955 Descending FlightAware ADS-B
Sun 11:48:42 PM 30.0221 -94.8802 246° West 241 277 5,200 -857 Descending FlightAware ADS-B
Sun 11:49:13 PM 30.0087 -94.9155 246° West 232 267 4,700 -885 Descending FlightAware ADS-B
Sun 11:49:43 PM 29.9956 -94.9499 247° West 227 261 4,300 -652 Descending FlightAware ADS-B
Sun 11:49:59 PM 29.9892 -94.9664 246° West 225 259 4,200 -444 Descending FlightAware ADS-B
Sun 11:50:10 PM 29.9844 -94.9789 246° West 223 257 4,100 -400 Descending FlightAware ADS-B
Sun 11:50:14 PM 29.9830 -94.9831 249° West 222 255 4,100  Level FlightAware ADS-B
Sun 11:50:19 PM 29.9812 -94.9891 251° West 221 254 4,100 -400 Level FlightAware ADS-B
Sun 11:50:29 PM 29.9786 -95.0006 257° West 221 254 4,000 -429 Descending FlightAware ADS-B
Sun 11:50:33 PM 29.9778 -95.0047 257° West 220 253 4,000 -750 Level FlightAware ADS-B
Sun 11:50:45 PM 29.9772 -95.0187 273° West 213 245 3,800 -667 Descending FlightAware ADS-B
Sun 11:51:00 PM 29.9772 -95.0358 270° West 208 239 3,700 -400 Descending FlightAware ADS-B
Sun 11:51:15 PM 29.9773 -95.0518 270° West 200 230 3,600 -556 Descending FlightAware ADS-B
Sun 11:51:54 PM 29.9774 -95.0915 270° West 188 216 3,200 -556 Descending FlightAware ADS-B
Sun 11:52:09 PM 29.9775 -95.1064 270° West 179 206 3,100 -587 Descending FlightAware ADS-B
Sun 11:53:26 PM 29.9776 -95.1709 270° West 153 176 2,300 -674 Descending FlightAware ADS-B
Sun 11:53:38 PM 29.9776 -95.1808 270° West 152 175 2,100 -857 Descending FlightAware ADS-B
Sun 11:53:54 PM 29.9776 -95.1935 270° West 152 175 1,900 -857 Descending FlightAware ADS-B
Sun 11:54:06 PM 29.9776 -95.2035 270° West 152 175 1,700 -789 Descending FlightAware ADS-B
Sun 11:54:32 PM 29.9776 -95.2249 270° West 152 175 1,400 -714 Descending FlightAware ADS-B
Sun 11:54:48 PM 29.9776 -95.2372 270° West 150 173 1,200 -857 Descending FlightAware ADS-B
Sun 11:55:00 PM 29.9776 -95.2471 270° West 149 171 1,000 -783 Descending FlightAware ADS-B
Sun 11:55:11 PM 29.9776 -95.2553 270° West 148 170 900 -600 Descending FlightAware ADS-B
Sun 11:55:20 PM 29.9776 -95.2631 270° West 148 170 800 -720 Descending FlightAware ADS-B
Sun 11:55:36 PM 29.9776 -95.2753 270° West 147 169 600 -750 Descending FlightAware ADS-B
Sun 11:55:52 PM 29.9776 -95.2877 270° West 146 168 400 -750 Descending FlightAware ADS-B
Sun 11:56:08 PM 29.9776 -95.3006 270° West 144 166 200 -750 Descending FlightAware ADS-B

Login

Don't have an account? Register now (free) for customized features, flight alerts, and more!